Time;durP1;ratioP1;P1;durP2;ratioP2;P2;SDS_P1;SDS_P2;PMS_P1;PMS_P2;Temp;Humidity;BMP_temperature;BMP_pressure;BME280_temperature;BME280_humidity;BME280_pressure;Samples;Min_cycle;Max_cycle;Signal;HPM_P1;HPM_P2
2021/08/22 00:01:12;;;;;;;14.90;13.43;;;20.20;1.00;;;;;;5056817;28;20184;-60
2021/08/22 00:03:38;;;;;;;13.40;12.07;;;20.20;1.00;;;;;;5049901;28;20187;-60
2021/08/22 00:06:03;;;;;;;15.97;14.53;;;20.20;1.00;;;;;;5050984;28;20194;-58
2021/08/22 00:08:29;;;;;;;15.40;14.17;;;20.20;1.00;;;;;;5055615;28;20312;-59
2021/08/22 00:10:55;;;;;;;14.73;13.47;;;20.20;1.00;;;;;;5051255;28;20211;-58
2021/08/22 00:13:22;;;;;;;14.23;13.13;;;20.20;1.00;;;;;;5059851;28;20947;-58
2021/08/22 00:15:48;;;;;;;15.03;13.63;;;20.20;1.00;;;;;;5053187;28;20264;-58
2021/08/22 00:18:13;;;;;;;15.43;14.03;;;20.10;1.00;;;;;;5052762;28;20871;-58
2021/08/22 00:20:39;;;;;;;14.57;13.20;;;19.90;1.00;;;;;;5048920;28;20951;-59
2021/08/22 00:23:04;;;;;;;14.97;13.77;;;19.80;1.00;;;;;;5050137;28;20261;-59
2021/08/22 00:25:30;;;;;;;14.03;12.80;;;19.80;1.00;;;;;;5062304;28;20271;-59
2021/08/22 00:27:56;;;;;;;15.30;14.00;;;19.80;1.00;;;;;;5032745;28;20185;-59
2021/08/22 00:30:21;;;;;;;14.57;13.43;;;19.80;1.00;;;;;;5061932;28;20209;-59
2021/08/22 00:32:47;;;;;;;14.27;13.03;;;19.70;1.00;;;;;;5062430;28;20218;-58
2021/08/22 00:35:13;;;;;;;14.97;13.77;;;19.60;1.00;;;;;;5066604;28;20200;-59
2021/08/22 00:37:38;;;;;;;14.47;13.23;;;19.60;1.00;;;;;;5074185;28;20231;-60
2021/08/22 00:40:05;;;;;;;14.13;12.93;;;19.60;1.00;;;;;;5064468;28;20193;-58
2021/08/22 00:42:32;;;;;;;14.27;12.97;;;19.60;1.00;;;;;;5058433;28;20446;-59
2021/08/22 00:44:59;;;;;;;14.67;13.47;;;19.60;1.00;;;;;;5065769;28;20452;-58
2021/08/22 00:47:25;;;;;;;15.03;13.63;;;19.60;1.00;;;;;;5063501;28;20449;-58
2021/08/22 00:49:51;;;;;;;14.27;13.03;;;19.60;1.00;;;;;;5062082;28;20452;-59
2021/08/22 00:52:17;;;;;;;14.50;13.17;;;19.50;1.00;;;;;;5059645;28;20442;-60
2021/08/22 00:54:42;;;;;;;14.07;12.80;;;19.60;1.00;;;;;;5072320;28;20185;-60
2021/08/22 00:57:10;;;;;;;13.83;12.60;;;19.50;1.00;;;;;;5058972;28;20238;-57
2021/08/22 00:59:38;;;;;;;14.10;12.70;;;19.50;1.00;;;;;;5059165;28;20537;-59
2021/08/22 01:02:06;;;;;;;14.80;13.50;;;19.50;1.00;;;;;;5060111;28;20572;-61
2021/08/22 01:04:44;;;;;;;14.40;13.17;;;19.40;1.00;;;;;;5060636;28;20521;-58
2021/08/22 01:07:30;;;;;;;13.40;12.20;;;19.40;1.00;;;;;;5052440;28;20431;-57
2021/08/22 01:09:56;;;;;;;14.20;12.87;;;19.50;1.00;;;;;;5070276;28;20442;-58
2021/08/22 01:12:27;;;;;;;13.93;12.70;;;19.40;1.00;;;;;;5073352;28;20442;-58
2021/08/22 01:15:00;;;;;;;13.50;12.20;;;19.50;1.00;;;;;;5063523;28;20198;-58
2021/08/22 01:17:29;;;;;;;13.60;12.40;;;19.50;1.00;;;;;;5052435;28;20469;-59
2021/08/22 01:20:20;;;;;;;12.93;11.73;;;19.50;1.00;;;;;;5052407;28;20435;-58
2021/08/22 01:22:47;;;;;;;12.27;11.23;;;19.50;1.00;;;;;;5052776;28;20543;-59
2021/08/22 01:25:15;;;;;;;12.97;11.77;;;19.50;1.00;;;;;;5067448;28;20435;-58
2021/08/22 01:27:41;;;;;;;13.47;12.07;;;19.60;1.00;;;;;;5057242;28;20522;-58
2021/08/22 01:30:12;;;;;;;13.10;11.80;;;19.60;1.00;;;;;;5055161;28;20433;-58
2021/08/22 01:32:43;;;;;;;13.10;12.00;;;19.60;1.00;;;;;;5061037;28;20448;-58
2021/08/22 01:35:11;;;;;;;12.70;11.60;;;19.60;1.00;;;;;;5055959;28;20445;-60
2021/08/22 01:37:38;;;;;;;13.57;12.33;;;19.60;1.00;;;;;;5059828;28;20481;-58
2021/08/22 01:40:06;;;;;;;12.13;11.13;;;19.60;1.00;;;;;;5069405;28;20413;-59
2021/08/22 01:42:34;;;;;;;11.60;10.60;;;19.60;1.00;;;;;;5054364;28;20433;-59
2021/08/22 01:45:02;;;;;;;12.87;11.63;;;19.60;1.00;;;;;;5061423;28;20431;-57
2021/08/22 01:47:29;;;;;;;13.83;11.40;;;19.50;1.00;;;;;;5057814;28;20545;-58
2021/08/22 01:49:55;;;;;;;11.57;10.57;;;19.50;1.00;;;;;;5065300;28;20434;-59
2021/08/22 01:52:22;;;;;;;12.00;10.90;;;19.50;1.00;;;;;;5057236;28;21016;-59
2021/08/22 01:54:47;;;;;;;13.30;12.20;;;19.40;1.00;;;;;;5054111;28;20466;-57
2021/08/22 01:57:13;;;;;;;10.80;10.00;;;19.30;1.00;;;;;;5060066;28;20446;-58
2021/08/22 01:59:39;;;;;;;13.60;12.43;;;19.30;1.00;;;;;;5061098;28;20177;-59
2021/08/22 02:02:05;;;;;;;11.70;10.70;;;19.30;1.00;;;;;;5063373;28;20633;-59
2021/08/22 02:04:40;;;;;;;12.27;11.07;;;19.20;1.00;;;;;;5051536;28;20438;-58
2021/08/22 02:07:15;;;;;;;11.57;10.57;;;19.30;1.00;;;;;;5056156;28;20886;-59
2021/08/22 02:09:46;;;;;;;12.50;11.43;;;19.20;1.00;;;;;;5070009;28;20433;-60
2021/08/22 02:12:18;;;;;;;11.77;10.83;;;19.20;1.00;;;;;;5058362;28;20438;-58
2021/08/22 02:15:12;;;;;;;13.67;12.27;;;19.10;1.00;;;;;;5062326;28;20486;-59
2021/08/22 02:17:56;;;;;;;12.27;11.30;;;19.10;1.00;;;;;;5047975;28;20442;-59
2021/08/22 02:20:22;;;;;;;12.20;11.10;;;19.00;1.00;;;;;;5060393;28;20413;-59
2021/08/22 02:22:50;;;;;;;12.40;11.30;;;19.00;1.00;;;;;;5060418;28;20580;-58
2021/08/22 02:25:16;;;;;;;11.90;10.90;;;18.90;1.00;;;;;;5063345;28;20516;-59
2021/08/22 02:27:42;;;;;;;12.73;11.63;;;18.90;1.00;;;;;;5056306;28;20788;-58
2021/08/22 02:30:08;;;;;;;12.13;11.13;;;18.90;1.00;;;;;;5054749;28;20472;-57
2021/08/22 02:32:34;;;;;;;12.90;11.63;;;18.90;1.00;;;;;;5061305;28;20456;-58
2021/08/22 02:35:00;;;;;;;11.50;10.50;;;18.80;1.00;;;;;;5055857;28;20852;-59
2021/08/22 02:37:25;;;;;;;11.23;10.23;;;18.90;1.00;;;;;;5062430;28;20170;-58
2021/08/22 02:39:51;;;;;;;10.93;9.83;;;18.80;1.00;;;;;;5056982;28;20217;-58
2021/08/22 02:42:17;;;;;;;11.37;10.47;;;18.80;1.00;;;;;;5065061;28;20589;-58
2021/08/22 02:44:44;;;;;;;11.23;10.23;;;18.80;1.00;;;;;;5061773;28;20848;-57
2021/08/22 02:47:10;;;;;;;10.30;9.37;;;18.80;1.00;;;;;;5065393;28;20434;-58
2021/08/22 02:49:36;;;;;;;10.70;9.70;;;18.80;1.00;;;;;;5057573;28;20434;-57
2021/08/22 02:52:02;;;;;;;10.83;9.90;;;18.90;1.00;;;;;;5068238;28;20934;-58
2021/08/22 02:54:27;;;;;;;10.77;9.77;;;19.00;1.00;;;;;;5055184;28;20541;-59
2021/08/22 02:56:53;;;;;;;11.50;10.50;;;18.90;1.00;;;;;;5054745;28;20205;-58
2021/08/22 02:59:18;;;;;;;11.00;10.10;;;19.00;1.00;;;;;;5057540;28;20186;-58
2021/08/22 03:01:44;;;;;;;10.47;9.43;;;19.00;1.00;;;;;;5059700;28;20191;-58
2021/08/22 03:04:09;;;;;;;10.90;10.00;;;19.00;1.00;;;;;;5056951;28;20271;-59
2021/08/22 03:06:35;;;;;;;10.47;9.63;;;19.00;1.00;;;;;;5054788;28;20183;-58
2021/08/22 03:09:02;;;;;;;12.00;9.33;;;19.80;1.00;;;;;;5061497;28;20184;-59
2021/08/22 03:11:29;;;;;;;9.60;8.70;;;19.10;1.00;;;;;;5052224;28;20189;-57
2021/08/22 03:13:54;;;;;;;9.90;9.00;;;19.20;1.00;;;;;;5061021;28;20786;-59
2021/08/22 03:16:20;;;;;;;10.80;9.37;;;19.30;1.00;;;;;;5059434;28;20480;-58
2021/08/22 03:18:45;;;;;;;9.50;8.80;;;19.20;1.00;;;;;;5050948;28;20206;-58
2021/08/22 03:21:11;;;;;;;9.57;8.67;;;19.20;1.00;;;;;;5051398;28;20643;-59
2021/08/22 03:23:36;;;;;;;10.70;9.23;;;19.20;1.00;;;;;;5060493;28;20179;-58
2021/08/22 03:26:02;;;;;;;9.77;8.97;;;19.30;1.00;;;;;;5064177;28;20215;-59
2021/08/22 03:28:29;;;;;;;10.57;9.57;;;19.20;1.00;;;;;;5059174;28;20649;-58
2021/08/22 03:30:54;;;;;;;9.37;8.47;;;19.20;1.00;;;;;;5057196;28;20600;-58
2021/08/22 03:33:20;;;;;;;9.77;8.93;;;19.30;1.00;;;;;;5050898;28;20557;-58
2021/08/22 03:35:47;;;;;;;9.50;8.60;;;19.30;1.00;;;;;;5058494;28;20306;-59
2021/08/22 03:38:13;;;;;;;9.77;8.87;;;19.30;1.00;;;;;;5050070;28;20236;-58
2021/08/22 03:40:38;;;;;;;10.00;8.90;;;19.30;1.00;;;;;;5063515;28;20444;-59
2021/08/22 03:43:04;;;;;;;8.80;8.10;;;19.30;1.00;;;;;;5058609;28;20212;-59
2021/08/22 03:45:29;;;;;;;9.50;8.60;;;19.40;1.00;;;;;;5063780;28;20753;-61
2021/08/22 03:47:55;;;;;;;10.03;9.10;;;19.40;1.00;;;;;;5052825;28;20591;-59
2021/08/22 03:50:21;;;;;;;8.70;7.90;;;19.30;1.00;;;;;;5056411;28;20665;-58
2021/08/22 03:52:51;;;;;;;8.53;7.73;;;19.40;1.00;;;;;;5060244;28;20272;-58
2021/08/22 03:55:20;;;;;;;9.10;8.30;;;19.30;1.00;;;;;;5053978;28;20257;-58
2021/08/22 03:57:46;;;;;;;10.03;9.13;;;19.20;1.00;;;;;;5060020;28;20533;-58
2021/08/22 04:00:12;;;;;;;9.63;8.83;;;19.30;1.00;;;;;;5063055;28;20547;-59
2021/08/22 04:02:38;;;;;;;9.23;8.43;;;19.20;1.00;;;;;;5059518;28;20182;-60
2021/08/22 04:05:06;;;;;;;8.50;7.70;;;19.20;1.00;;;;;;5054221;28;20520;-58
2021/08/22 04:07:31;;;;;;;9.33;8.53;;;19.20;1.00;;;;;;5058642;28;20668;-60
2021/08/22 04:09:57;;;;;;;10.37;9.37;;;19.10;1.00;;;;;;5057098;28;20451;-58
2021/08/22 04:12:22;;;;;;;10.43;9.50;;;19.10;1.00;;;;;;5065655;28;20201;-59
2021/08/22 04:14:48;;;;;;;10.20;9.27;;;19.00;1.00;;;;;;5064911;28;20197;-58
2021/08/22 04:17:13;;;;;;;10.10;8.97;;;19.00;1.00;;;;;;5063926;28;20197;-57
2021/08/22 04:19:41;;;;;;;10.67;9.77;;;18.90;1.00;;;;;;5067624;28;20188;-58
2021/08/22 04:22:07;;;;;;;9.70;8.83;;;18.90;1.00;;;;;;5059847;28;20197;-59
2021/08/22 04:24:34;;;;;;;9.00;8.20;;;18.90;1.00;;;;;;5060848;28;20941;-59
2021/08/22 04:27:00;;;;;;;8.67;7.97;;;19.00;1.00;;;;;;5062728;28;20961;-59
2021/08/22 04:29:26;;;;;;;10.13;8.97;;;18.90;1.00;;;;;;5065605;28;20436;-58
2021/08/22 04:31:52;;;;;;;9.63;8.80;;;19.00;1.00;;;;;;5060307;28;20524;-60
2021/08/22 04:34:18;;;;;;;8.50;7.80;;;20.20;1.00;;;;;;5057671;28;20474;-59
2021/08/22 04:36:43;;;;;;;9.03;8.13;;;19.00;1.00;;;;;;5060257;28;20200;-58
2021/08/22 04:39:09;;;;;;;10.53;8.67;;;19.00;1.00;;;;;;5053797;28;20476;-58
2021/08/22 04:41:35;;;;;;;9.20;8.30;;;19.00;1.00;;;;;;5062441;28;20531;-59
2021/08/22 04:44:00;;;;;;;8.57;7.70;;;19.10;1.00;;;;;;5060025;28;20181;-58
2021/08/22 04:46:26;;;;;;;8.87;8.17;;;19.00;1.00;;;;;;5058840;28;20647;-58
2021/08/22 04:48:51;;;;;;;9.00;8.30;;;19.10;1.00;;;;;;5059797;28;20194;-58
2021/08/22 04:51:17;;;;;;;8.60;7.80;;;19.10;1.00;;;;;;5071963;28;20216;-58
2021/08/22 04:53:42;;;;;;;9.00;8.10;;;19.10;1.00;;;;;;5056025;28;20666;-59
2021/08/22 04:56:08;;;;;;;7.80;7.00;;;19.20;1.00;;;;;;5060494;28;20215;-60
2021/08/22 04:58:35;;;;;;;8.13;7.43;;;19.20;1.00;;;;;;5057317;28;20185;-59
2021/08/22 05:01:01;;;;;;;8.60;7.73;;;19.20;1.00;;;;;;5057476;28;20539;-59
2021/08/22 05:03:26;;;;;;;8.87;7.97;;;19.20;1.00;;;;;;5058831;28;20537;-59
2021/08/22 05:05:52;;;;;;;7.97;7.27;;;19.30;1.00;;;;;;5063905;28;20702;-58
2021/08/22 05:08:18;;;;;;;8.03;7.33;;;19.50;1.00;;;;;;5054499;28;20190;-57
2021/08/22 05:10:45;;;;;;;7.63;6.93;;;19.60;1.00;;;;;;5053788;28;20182;-59
2021/08/22 05:13:10;;;;;;;8.47;7.77;;;19.80;1.00;;;;;;5055362;28;20818;-58
2021/08/22 05:15:36;;;;;;;8.80;7.93;;;19.90;1.00;;;;;;5061946;28;20581;-60
2021/08/22 05:18:02;;;;;;;8.00;7.30;;;20.10;1.00;;;;;;5058303;28;20275;-58
2021/08/22 05:20:27;;;;;;;7.80;7.00;;;20.30;1.00;;;;;;5068807;28;20640;-59
2021/08/22 05:22:52;;;;;;;12.03;7.80;;;20.60;1.00;;;;;;5053832;28;20186;-58
2021/08/22 05:25:18;;;;;;;7.33;6.73;;;20.80;1.00;;;;;;5058687;28;20185;-58
2021/08/22 05:27:43;;;;;;;7.73;7.13;;;20.80;1.00;;;;;;5065795;28;20190;-59
2021/08/22 05:30:09;;;;;;;7.00;6.40;;;20.90;1.00;;;;;;5059021;28;20195;-63
2021/08/22 05:32:35;;;;;;;6.80;6.20;;;21.10;1.00;;;;;;5054957;28;20274;-58
2021/08/22 05:35:00;;;;;;;7.20;6.60;;;21.20;1.00;;;;;;5063106;28;20276;-59
2021/08/22 05:37:26;;;;;;;7.17;6.57;;;21.30;1.00;;;;;;5059313;28;20197;-59
2021/08/22 05:39:51;;;;;;;7.40;6.80;;;21.40;1.00;;;;;;5052775;28;20187;-58
2021/08/22 05:42:17;;;;;;;7.90;7.20;;;21.60;1.00;;;;;;5057363;28;20184;-58
2021/08/22 05:44:42;;;;;;;6.47;5.97;;;21.60;1.00;;;;;;5070666;28;20664;-59
2021/08/22 05:47:08;;;;;;;6.90;6.30;;;21.70;1.00;;;;;;5060069;28;20188;-59
2021/08/22 05:49:38;;;;;;;6.77;6.27;;;21.70;1.00;;;;;;5051004;28;20231;-58
2021/08/22 05:52:05;;;;;;;6.73;6.23;;;21.80;1.00;;;;;;5055384;28;20534;-59
2021/08/22 05:54:31;;;;;;;7.37;6.77;;;21.70;1.00;;;;;;5052663;28;20488;-60
2021/08/22 05:56:56;;;;;;;7.13;6.53;;;21.70;1.00;;;;;;5059688;28;20498;-59
2021/08/22 05:59:22;;;;;;;6.70;6.10;;;21.70;1.00;;;;;;5059329;28;20188;-58
2021/08/22 06:01:47;;;;;;;6.40;5.90;;;21.90;1.00;;;;;;5058107;28;20275;-60
2021/08/22 06:04:13;;;;;;;6.77;6.17;;;22.10;1.00;;;;;;5055530;28;20223;-60
2021/08/22 06:06:39;;;;;;;6.90;6.30;;;22.00;1.00;;;;;;5054315;28;20197;-60
2021/08/22 06:09:05;;;;;;;5.37;4.93;;;21.90;1.00;;;;;;5056376;28;20258;-58
2021/08/22 06:11:31;;;;;;;6.23;5.63;;;21.80;1.00;;;;;;5059819;28;20533;-59
2021/08/22 06:13:56;;;;;;;6.77;6.10;;;21.60;1.00;;;;;;5058202;28;20794;-60
2021/08/22 06:16:22;;;;;;;6.00;5.50;;;21.40;1.00;;;;;;5059459;28;20230;-59
2021/08/22 06:18:47;;;;;;;6.00;5.57;;;21.10;1.00;;;;;;5061968;28;20187;-60
2021/08/22 06:21:13;;;;;;;6.37;5.70;;;21.00;1.00;;;;;;5054413;28;20645;-59
2021/08/22 06:23:38;;;;;;;6.50;5.60;;;20.90;1.00;;;;;;5061739;28;20778;-58
2021/08/22 06:26:04;;;;;;;6.80;5.80;;;20.90;1.00;;;;;;5067207;28;20217;-58
2021/08/22 06:28:29;;;;;;;6.80;6.10;;;20.90;1.00;;;;;;5055237;28;20202;-59
2021/08/22 06:30:55;;;;;;;6.33;5.53;;;20.90;1.00;;;;;;5056236;28;20286;-58
2021/08/22 06:33:20;;;;;;;7.67;5.70;;;20.90;1.00;;;;;;5051247;28;20216;-57
2021/08/22 06:35:46;;;;;;;7.13;6.53;;;21.00;1.00;;;;;;5056423;28;20693;-58
2021/08/22 06:38:11;;;;;;;6.60;6.00;;;21.10;1.00;;;;;;5051574;28;20800;-58
2021/08/22 06:40:37;;;;;;;6.00;5.50;;;21.20;1.00;;;;;;5054497;28;20694;-58
2021/08/22 06:43:02;;;;;;;6.00;5.40;;;21.20;1.00;;;;;;5049589;28;20197;-57
2021/08/22 06:45:28;;;;;;;6.93;6.20;;;21.20;1.00;;;;;;5053419;28;20263;-59
2021/08/22 06:47:53;;;;;;;8.50;6.37;;;21.20;1.00;;;;;;5048832;28;20218;-57
2021/08/22 06:50:21;;;;;;;6.53;5.80;;;21.30;1.00;;;;;;5059844;28;20183;-62
2021/08/22 06:52:46;;;;;;;6.77;5.93;;;21.30;1.00;;;;;;5058785;28;20196;-59
2021/08/22 06:55:12;;;;;;;5.70;5.20;;;21.40;1.00;;;;;;5053248;28;20474;-58
2021/08/22 06:57:37;;;;;;;6.60;5.40;;;21.40;1.00;;;;;;5050985;28;20204;-58
2021/08/22 07:00:04;;;;;;;6.10;5.40;;;21.50;1.00;;;;;;5051997;28;20195;-58
2021/08/22 07:02:30;;;;;;;6.70;6.10;;;21.50;1.00;;;;;;5065118;28;20192;-59
2021/08/22 07:04:55;;;;;;;8.83;6.20;;;21.60;1.00;;;;;;5051436;28;20816;-57
2021/08/22 07:07:21;;;;;;;6.03;5.53;;;21.70;1.00;;;;;;5050986;28;20647;-61
2021/08/22 07:09:46;;;;;;;5.43;4.93;;;21.70;1.00;;;;;;5050547;28;20279;-61
2021/08/22 07:12:14;;;;;;;8.30;5.60;;;21.80;1.00;;;;;;5051551;28;20277;-60
2021/08/22 07:14:40;;;;;;;6.33;5.73;;;21.90;1.00;;;;;;5059700;28;20175;-60
2021/08/22 07:17:05;;;;;;;7.37;6.43;;;21.90;1.00;;;;;;5050921;28;20479;-61
2021/08/22 07:19:31;;;;;;;6.23;5.67;;;22.10;1.00;;;;;;5054826;28;20184;-61
2021/08/22 07:21:56;;;;;;;6.40;5.83;;;22.30;1.00;;;;;;5052503;28;20179;-61
2021/08/22 07:24:22;;;;;;;13.23;6.27;;;22.50;1.00;;;;;;5050487;28;20226;-60
2021/08/22 07:26:48;;;;;;;6.03;5.37;;;22.70;1.00;;;;;;5048572;28;20706;-61
2021/08/22 07:29:14;;;;;;;6.30;5.70;;;22.70;1.00;;;;;;5055163;28;20645;-59
2021/08/22 07:31:39;;;;;;;5.87;5.33;;;22.70;1.00;;;;;;5050353;28;20473;-61
2021/08/22 07:34:05;;;;;;;6.73;6.03;;;22.70;1.00;;;;;;5054781;28;20300;-60
2021/08/22 07:36:30;;;;;;;8.63;5.60;;;22.80;1.00;;;;;;5054918;28;20200;-58
2021/08/22 07:38:56;;;;;;;6.10;5.50;;;23.00;1.00;;;;;;5052092;28;20637;-59
2021/08/22 07:41:21;;;;;;;10.27;6.87;;;23.20;1.00;;;;;;5056137;28;20660;-58
2021/08/22 07:43:47;;;;;;;7.03;6.33;;;23.50;1.00;;;;;;5056366;28;20189;-59
2021/08/22 07:46:13;;;;;;;5.50;5.00;;;23.60;1.00;;;;;;5053343;28;20330;-59
2021/08/22 07:48:38;;;;;;;6.60;6.10;;;23.60;1.00;;;;;;5054641;28;20200;-59
2021/08/22 07:51:04;;;;;;;6.37;5.77;;;23.70;1.00;;;;;;5054923;28;20606;-59
2021/08/22 07:53:29;;;;;;;6.10;5.50;;;23.90;1.00;;;;;;5055563;28;20188;-60
2021/08/22 07:55:56;;;;;;;5.77;5.27;;;23.90;1.00;;;;;;5055186;28;20203;-60
2021/08/22 07:58:21;;;;;;;6.30;5.77;;;24.10;1.00;;;;;;5057778;28;20255;-59
2021/08/22 08:00:47;;;;;;;7.70;6.83;;;24.10;1.00;;;;;;5058207;28;20443;-60
2021/08/22 08:03:12;;;;;;;6.80;6.10;;;24.00;1.00;;;;;;5057785;28;20195;-59
2021/08/22 08:05:38;;;;;;;5.60;5.20;;;23.90;1.00;;;;;;5054312;28;20561;-60
2021/08/22 08:08:04;;;;;;;6.90;6.30;;;23.70;1.00;;;;;;5050163;28;20607;-60
2021/08/22 08:10:30;;;;;;;6.97;6.30;;;23.50;1.00;;;;;;5050045;28;20223;-60
2021/08/22 08:12:55;;;;;;;7.80;6.43;;;23.50;1.00;;;;;;5052300;28;20200;-59
2021/08/22 08:15:21;;;;;;;6.10;5.43;;;23.60;1.00;;;;;;5054911;28;20216;-62
2021/08/22 08:17:47;;;;;;;6.27;5.77;;;23.50;1.00;;;;;;5059209;28;20196;-58
2021/08/22 08:20:13;;;;;;;13.93;7.20;;;23.50;1.00;;;;;;5063505;28;20545;-59
2021/08/22 08:22:38;;;;;;;7.47;6.73;;;23.40;1.00;;;;;;5051246;28;20185;-60
2021/08/22 08:25:05;;;;;;;8.53;7.80;;;23.30;1.00;;;;;;5057215;28;21015;-59
2021/08/22 08:27:30;;;;;;;7.43;6.83;;;23.30;1.00;;;;;;5056983;28;20196;-61
2021/08/22 08:29:56;;;;;;;8.07;7.27;;;23.50;1.00;;;;;;5060489;28;20447;-59
2021/08/22 08:32:22;;;;;;;7.10;6.27;;;23.40;1.00;;;;;;5054043;28;20272;-60
2021/08/22 08:34:48;;;;;;;7.33;6.03;;;23.40;1.00;;;;;;5050696;28;20501;-59
2021/08/22 08:37:14;;;;;;;8.20;7.40;;;23.40;1.00;;;;;;5055595;28;20249;-59
2021/08/22 08:39:40;;;;;;;6.87;6.23;;;23.50;1.00;;;;;;5050383;28;20447;-60
2021/08/22 08:42:52;;;;;;;7.50;6.73;;;23.50;1.00;;;;;;5057354;28;20951;-61
2021/08/22 08:45:36;;;;;;;7.80;7.13;;;23.50;1.00;;;;;;5039437;28;20220;-59
2021/08/22 08:48:02;;;;;;;8.30;7.50;;;23.60;1.00;;;;;;5034712;28;20448;-59
2021/08/22 08:50:48;;;;;;;8.40;6.57;;;23.70;1.00;;;;;;5067012;28;20951;-61
2021/08/22 08:53:20;;;;;;;9.03;7.40;;;23.90;1.00;;;;;;5044472;28;20425;-60
2021/08/22 08:55:56;;;;;;;7.77;7.07;;;24.10;1.00;;;;;;5053364;28;20940;-59
2021/08/22 08:58:22;;;;;;;6.83;6.17;;;24.20;1.00;;;;;;5053869;28;20534;-61
2021/08/22 09:00:48;;;;;;;8.00;7.30;;;24.30;1.00;;;;;;5064592;28;20532;-60
2021/08/22 09:03:17;;;;;;;7.43;6.83;;;24.30;1.00;;;;;;5060698;28;20177;-60
2021/08/22 09:06:01;;;;;;;7.63;6.97;;;24.40;1.00;;;;;;5056970;28;20447;-61
2021/08/22 09:09:04;;;;;;;7.27;6.60;;;24.40;1.00;;;;;;5056182;28;20951;-59
2021/08/22 09:12:07;;;;;;;7.27;6.60;;;24.30;1.00;;;;;;5059254;28;20497;-59
2021/08/22 09:14:57;;;;;;;7.10;6.40;;;24.20;1.00;;;;;;5064466;28;21037;-59
2021/08/22 09:17:40;;;;;;;7.87;6.33;;;24.10;1.00;;;;;;5060213;28;20431;-61
2021/08/22 09:20:43;;;;;;;7.60;6.90;;;24.00;1.00;;;;;;5058320;28;20435;-58
2021/08/22 09:23:47;;;;;;;7.70;7.10;;;24.00;1.00;;;;;;5054456;28;20430;-60
2021/08/22 09:26:50;;;;;;;7.87;7.17;;;24.00;1.00;;;;;;5060232;28;20439;-59
2021/08/22 09:29:53;;;;;;;8.87;7.93;;;23.90;1.00;;;;;;5049141;28;20447;-59
2021/08/22 09:32:56;;;;;;;8.17;7.47;;;23.80;1.00;;;;;;5048285;28;20420;-59
2021/08/22 09:35:59;;;;;;;7.43;6.83;;;23.90;1.00;;;;;;5066173;28;21313;-61
2021/08/22 09:38:55;;;;;;;7.90;7.20;;;23.90;1.00;;;;;;5058203;28;20510;-60
2021/08/22 09:42:13;;;;;;;8.90;8.00;;;23.90;1.00;;;;;;5060380;28;20442;-60
2021/08/22 09:44:46;;;;;;;8.00;7.40;;;24.00;1.00;;;;;;5064641;28;20439;-60
2021/08/22 09:47:31;;;;;;;8.00;7.33;;;23.90;1.00;;;;;;5053199;28;20486;-60
2021/08/22 09:50:34;;;;;;;9.27;8.23;;;23.80;1.00;;;;;;5057930;28;20426;-60
2021/08/22 09:53:31;;;;;;;7.07;6.50;;;23.60;1.00;;;;;;5054190;28;20442;-61
2021/08/22 09:56:24;;;;;;;8.13;7.33;;;23.50;1.00;;;;;;5058344;28;20487;-60
2021/08/22 09:59:13;;;;;;;8.50;7.40;;;23.60;1.00;;;;;;5053794;28;20476;-58
2021/08/22 10:02:06;;;;;;;8.30;7.50;;;23.70;1.00;;;;;;5052975;28;20435;-59
2021/08/22 10:04:50;;;;;;;7.73;7.03;;;23.60;1.00;;;;;;5060870;28;20474;-60
2021/08/22 10:07:16;;;;;;;8.00;7.30;;;23.70;1.00;;;;;;5065841;28;20430;-61
2021/08/22 10:09:59;;;;;;;8.90;8.10;;;23.80;1.00;;;;;;5060691;28;20432;-59
2021/08/22 10:12:25;;;;;;;7.70;7.10;;;24.00;1.00;;;;;;5053516;28;20483;-60
2021/08/22 10:14:50;;;;;;;9.33;8.53;;;24.20;1.00;;;;;;5053054;28;20829;-59
2021/08/22 10:17:26;;;;;;;8.60;7.90;;;24.30;1.00;;;;;;5059175;28;20181;-60
2021/08/22 10:19:52;;;;;;;10.07;8.97;;;24.50;1.00;;;;;;5066516;28;20172;-60
2021/08/22 10:22:19;;;;;;;8.67;7.40;;;24.70;1.00;;;;;;5051129;28;20447;-59
2021/08/22 10:24:48;;;;;;;8.63;7.73;;;25.10;1.00;;;;;;5051942;28;20794;-61
2021/08/22 10:27:37;;;;;;;8.20;7.40;;;25.40;1.00;;;;;;5053612;28;20448;-61
2021/08/22 10:30:03;;;;;;;7.53;6.80;;;25.40;1.00;;;;;;5056841;28;20437;-60
2021/08/22 10:32:33;;;;;;;7.60;6.80;;;25.40;1.00;;;;;;5065376;28;20474;-61
2021/08/22 10:35:10;;;;;;;7.87;7.13;;;25.70;1.00;;;;;;5057350;28;20533;-60
2021/08/22 10:37:37;;;;;;;8.40;6.90;;;25.60;1.00;;;;;;5054027;28;20445;-61
2021/08/22 10:40:24;;;;;;;9.10;7.20;;;25.70;1.00;;;;;;5051402;28;20493;-61
2021/08/22 10:42:56;;;;;;;7.57;6.97;;;25.80;1.00;;;;;;5048710;28;20488;-61
2021/08/22 10:45:40;;;;;;;7.53;6.40;;;26.00;1.00;;;;;;5052189;28;20489;-61
2021/08/22 10:48:09;;;;;;;8.60;6.90;;;26.10;1.00;;;;;;5058241;28;20467;-60
2021/08/22 10:50:59;;;;;;;7.13;6.43;;;26.00;1.00;;;;;;5051141;28;20425;-59
2021/08/22 10:53:32;;;;;;;6.90;6.27;;;26.20;1.00;;;;;;5051873;28;20433;-59
2021/08/22 10:55:59;;;;;;;7.10;6.40;;;26.00;1.00;;;;;;5051321;28;20523;-63
2021/08/22 10:58:55;;;;;;;7.30;6.60;;;26.10;1.00;;;;;;5057330;28;20445;-62
2021/08/22 11:01:21;;;;;;;6.90;6.30;;;26.00;1.00;;;;;;5055370;28;20974;-60
2021/08/22 11:04:18;;;;;;;7.90;7.20;;;26.10;1.00;;;;;;5051092;28;20433;-59
2021/08/22 11:07:03;;;;;;;6.60;6.00;;;26.10;1.00;;;;;;5056105;28;20280;-59
2021/08/22 11:09:35;;;;;;;6.47;5.87;;;26.00;1.00;;;;;;5053192;28;20936;-59
2021/08/22 11:12:01;;;;;;;6.80;5.60;;;26.00;1.00;;;;;;5051425;28;20414;-60
2021/08/22 11:14:26;;;;;;;6.67;6.07;;;26.00;1.00;;;;;;5058099;28;20880;-60
2021/08/22 11:16:52;;;;;;;6.10;5.50;;;26.10;1.00;;;;;;5055501;28;20217;-59
2021/08/22 11:19:22;;;;;;;6.27;5.77;;;26.10;1.00;;;;;;5053941;28;20183;-58
2021/08/22 11:21:47;;;;;;;5.20;4.70;;;26.20;1.00;;;;;;5050462;28;20236;-59
2021/08/22 11:24:13;;;;;;;5.70;5.30;;;26.40;1.00;;;;;;5050990;28;20793;-59
2021/08/22 11:26:38;;;;;;;5.90;4.97;;;26.60;1.00;;;;;;5060495;28;20205;-60
2021/08/22 11:29:05;;;;;;;4.63;4.10;;;26.60;1.00;;;;;;5050868;28;20324;-59
2021/08/22 11:31:32;;;;;;;4.33;3.93;;;26.50;1.00;;;;;;5051209;28;20191;-60
2021/08/22 11:34:10;;;;;;;3.93;3.57;;;26.50;1.00;;;;;;5049979;28;20485;-58
2021/08/22 11:36:35;;;;;;;3.77;3.47;;;26.40;1.00;;;;;;5049895;28;20468;-59
2021/08/22 11:39:18;;;;;;;4.53;4.13;;;26.50;1.00;;;;;;5049495;28;20973;-60
2021/08/22 11:41:50;;;;;;;3.73;3.43;;;26.90;1.00;;;;;;5055109;28;20224;-59
2021/08/22 11:44:23;;;;;;;4.17;3.53;;;26.80;1.00;;;;;;5054628;28;20959;-59
2021/08/22 11:46:54;;;;;;;4.80;3.83;;;26.80;1.00;;;;;;5051268;28;20525;-58
2021/08/22 11:49:20;;;;;;;5.20;4.70;;;26.90;1.00;;;;;;5049868;28;20504;-60
2021/08/22 11:51:51;;;;;;;4.70;4.20;;;27.00;1.00;;;;;;5049360;28;20445;-57
2021/08/22 11:54:17;;;;;;;4.50;4.10;;;27.20;1.00;;;;;;5052522;28;20960;-58
2021/08/22 11:56:43;;;;;;;4.10;3.70;;;27.20;1.00;;;;;;5048675;28;20447;-60
2021/08/22 11:59:29;;;;;;;3.90;3.50;;;27.50;1.00;;;;;;5047402;28;20777;-60
2021/08/22 12:02:20;;;;;;;3.67;3.37;;;28.20;1.00;;;;;;5054678;28;20191;-58
2021/08/22 12:04:46;;;;;;;3.70;3.07;;;28.60;1.00;;;;;;5051462;28;20516;-59
2021/08/22 12:07:12;;;;;;;3.90;3.60;;;28.70;1.00;;;;;;5047945;28;20442;-58
2021/08/22 12:09:47;;;;;;;4.20;3.80;;;28.90;1.00;;;;;;5053041;28;20433;-59
2021/08/22 12:12:22;;;;;;;3.60;3.30;;;29.20;1.00;;;;;;5050108;28;20194;-59
2021/08/22 12:14:49;;;;;;;5.50;3.70;;;29.30;1.00;;;;;;5049999;28;21039;-60
2021/08/22 12:17:23;;;;;;;5.13;4.03;;;29.40;1.00;;;;;;5049993;28;20466;-61
2021/08/22 12:19:48;;;;;;;4.30;3.90;;;29.50;1.00;;;;;;5049971;28;20421;-59
2021/08/22 12:22:14;;;;;;;4.40;4.00;;;29.40;1.00;;;;;;5048264;28;20450;-59
2021/08/22 12:24:47;;;;;;;4.60;4.10;;;29.40;1.00;;;;;;5051759;28;20409;-59
2021/08/22 12:27:30;;;;;;;4.20;3.53;;;29.20;1.00;;;;;;5051735;28;20633;-58
2021/08/22 12:30:10;;;;;;;3.83;3.53;;;29.20;1.00;;;;;;5056739;28;21007;-59
2021/08/22 12:32:37;;;;;;;4.40;4.10;;;29.20;1.00;;;;;;5054308;28;20442;-63
2021/08/22 12:35:07;;;;;;;4.67;4.27;;;29.10;1.00;;;;;;5061936;28;20445;-60
2021/08/22 12:37:33;;;;;;;4.63;4.07;;;29.00;1.00;;;;;;5052265;28;20466;-60
2021/08/22 12:40:05;;;;;;;5.03;4.30;;;28.70;1.00;;;;;;5059333;28;20935;-60
2021/08/22 12:42:31;;;;;;;5.13;4.70;;;28.60;1.00;;;;;;5052155;28;20417;-59
2021/08/22 12:44:57;;;;;;;5.47;4.97;;;28.50;1.00;;;;;;5053039;28;20449;-60
2021/08/22 12:47:23;;;;;;;4.73;4.23;;;28.20;1.00;;;;;;5054590;28;20419;-59
2021/08/22 12:49:49;;;;;;;4.57;3.67;;;27.90;1.00;;;;;;5058843;28;20439;-59
2021/08/22 12:52:16;;;;;;;4.37;4.07;;;28.00;1.00;;;;;;5055586;28;20430;-58
2021/08/22 12:54:42;;;;;;;4.70;4.30;;;28.30;1.00;;;;;;5063121;28;20231;-60
2021/08/22 12:57:09;;;;;;;4.00;3.70;;;28.30;1.00;;;;;;5059161;28;20465;-59
2021/08/22 12:59:34;;;;;;;3.60;3.33;;;28.30;1.00;;;;;;5055806;28;20947;-61
2021/08/22 13:02:00;;;;;;;4.37;4.07;;;28.20;1.00;;;;;;5052483;28;20432;-60
2021/08/22 13:04:26;;;;;;;4.53;3.83;;;28.50;1.00;;;;;;5055559;28;20187;-58
2021/08/22 13:06:54;;;;;;;4.30;3.90;;;28.50;1.00;;;;;;5052446;28;20446;-58